sensor_id;sensor_type;location;lat;lon;timestamp;pressure;altitude;pressure_sealevel;temperature;humidity
20105;BME280;10212;42.714;23.310;2022-11-12T00:01:44;96551.06;;;7.32;95.70
20105;BME280;10212;42.714;23.310;2022-11-12T00:06:45;96541.25;;;7.26;96.11
20105;BME280;10212;42.714;23.310;2022-11-12T00:11:46;96527.50;;;7.15;96.82
20105;BME280;10212;42.714;23.310;2022-11-12T00:16:46;96529.56;;;6.93;99.21
20105;BME280;10212;42.714;23.310;2022-11-12T00:21:46;96536.66;;;6.91;99.67
20105;BME280;10212;42.714;23.310;2022-11-12T00:26:47;96539.72;;;6.77;100.00
20105;BME280;10212;42.714;23.310;2022-11-12T00:31:47;96547.94;;;6.62;100.00
20105;BME280;10212;42.714;23.310;2022-11-12T00:36:48;96547.09;;;6.71;100.00
20105;BME280;10212;42.714;23.310;2022-11-12T00:41:48;96547.19;;;6.80;99.55
20105;BME280;10212;42.714;23.310;2022-11-12T00:46:49;96552.47;;;6.88;99.01
20105;BME280;10212;42.714;23.310;2022-11-12T00:51:49;96538.56;;;6.89;98.86
20105;BME280;10212;42.714;23.310;2022-11-12T00:56:50;96532.53;;;6.98;99.40
20105;BME280;10212;42.714;23.310;2022-11-12T01:01:50;96513.88;;;6.85;99.19
20105;BME280;10212;42.714;23.310;2022-11-12T01:06:50;96508.81;;;6.93;98.55
20105;BME280;10212;42.714;23.310;2022-11-12T01:11:51;96523.19;;;6.78;100.00
20105;BME280;10212;42.714;23.310;2022-11-12T01:16:51;96532.31;;;6.82;98.94
20105;BME280;10212;42.714;23.310;2022-11-12T01:21:52;96514.00;;;6.93;99.14
20105;BME280;10212;42.714;23.310;2022-11-12T01:26:52;96516.56;;;7.21;98.41
20105;BME280;10212;42.714;23.310;2022-11-12T01:31:53;96513.31;;;7.19;98.48
20105;BME280;10212;42.714;23.310;2022-11-12T01:36:53;96514.63;;;7.23;97.66
20105;BME280;10212;42.714;23.310;2022-11-12T01:41:54;96503.66;;;7.30;97.30
20105;BME280;10212;42.714;23.310;2022-11-12T01:46:57;96490.00;;;7.09;98.40
20105;BME280;10212;42.714;23.310;2022-11-12T01:52:02;96497.94;;;7.08;98.01
20105;BME280;10212;42.714;23.310;2022-11-12T01:57:07;96496.09;;;7.18;97.80
20105;BME280;10212;42.714;23.310;2022-11-12T02:02:09;96485.78;;;7.08;98.43
20105;BME280;10212;42.714;23.310;2022-11-12T02:07:10;96497.84;;;6.99;99.71
20105;BME280;10212;42.714;23.310;2022-11-12T02:12:10;96492.63;;;7.28;97.02
20105;BME280;10212;42.714;23.310;2022-11-12T02:17:31;96490.16;;;7.08;96.27
20105;BME280;10212;42.714;23.310;2022-11-12T02:22:32;96505.59;;;7.28;97.25
20105;BME280;10212;42.714;23.310;2022-11-12T02:27:32;96502.63;;;7.22;97.66
20105;BME280;10212;42.714;23.310;2022-11-12T02:32:33;96505.31;;;7.03;98.53
20105;BME280;10212;42.714;23.310;2022-11-12T02:37:33;96497.28;;;7.24;97.68
20105;BME280;10212;42.714;23.310;2022-11-12T02:42:34;96491.28;;;7.23;96.84
20105;BME280;10212;42.714;23.310;2022-11-12T02:47:34;96492.91;;;7.24;95.85
20105;BME280;10212;42.714;23.310;2022-11-12T02:52:35;96492.88;;;7.06;96.01
20105;BME280;10212;42.714;23.310;2022-11-12T02:57:35;96488.22;;;7.10;94.49
20105;BME280;10212;42.714;23.310;2022-11-12T03:02:36;96491.19;;;7.15;94.12
20105;BME280;10212;42.714;23.310;2022-11-12T03:07:42;96498.78;;;7.27;90.34
20105;BME280;10212;42.714;23.310;2022-11-12T03:12:42;96496.47;;;7.23;90.25
20105;BME280;10212;42.714;23.310;2022-11-12T03:17:43;96498.56;;;7.20;91.24
20105;BME280;10212;42.714;23.310;2022-11-12T03:22:53;96501.28;;;7.18;90.93
20105;BME280;10212;42.714;23.310;2022-11-12T03:28:04;96502.44;;;7.06;90.12
20105;BME280;10212;42.714;23.310;2022-11-12T03:33:05;96490.75;;;7.02;89.28
20105;BME280;10212;42.714;23.310;2022-11-12T03:38:07;96501.88;;;6.84;88.93
20105;BME280;10212;42.714;23.310;2022-11-12T03:43:09;96495.56;;;6.58;90.54
20105;BME280;10212;42.714;23.310;2022-11-12T03:48:15;96503.81;;;6.44;92.45
20105;BME280;10212;42.714;23.310;2022-11-12T03:53:30;96501.25;;;6.34;92.92
20105;BME280;10212;42.714;23.310;2022-11-12T03:58:34;96499.97;;;6.58;92.98
20105;BME280;10212;42.714;23.310;2022-11-12T04:03:34;96496.97;;;6.53;89.54
20105;BME280;10212;42.714;23.310;2022-11-12T04:08:35;96499.22;;;6.27;89.05
20105;BME280;10212;42.714;23.310;2022-11-12T04:13:35;96486.19;;;6.09;89.11
20105;BME280;10212;42.714;23.310;2022-11-12T04:18:37;96490.81;;;6.06;90.45
20105;BME280;10212;42.714;23.310;2022-11-12T04:23:56;96477.59;;;5.79;92.57
20105;BME280;10212;42.714;23.310;2022-11-12T04:28:56;96483.50;;;5.71;91.74
20105;BME280;10212;42.714;23.310;2022-11-12T04:34:15;96476.66;;;5.70;89.26
20105;BME280;10212;42.714;23.310;2022-11-12T04:39:34;96484.84;;;5.65;90.75
20105;BME280;10212;42.714;23.310;2022-11-12T04:44:34;96477.22;;;5.74;89.63
20105;BME280;10212;42.714;23.310;2022-11-12T04:49:53;96483.72;;;5.88;90.44
20105;BME280;10212;42.714;23.310;2022-11-12T04:54:54;96487.53;;;5.84;90.25
20105;BME280;10212;42.714;23.310;2022-11-12T04:59:57;96487.50;;;6.03;87.70
20105;BME280;10212;42.714;23.310;2022-11-12T05:04:58;96490.00;;;6.15;86.18
20105;BME280;10212;42.714;23.310;2022-11-12T05:09:58;96492.97;;;6.10;86.06
20105;BME280;10212;42.714;23.310;2022-11-12T05:14:58;96504.69;;;6.05;88.13
20105;BME280;10212;42.714;23.310;2022-11-12T05:19:59;96512.38;;;6.06;88.78
20105;BME280;10212;42.714;23.310;2022-11-12T05:24:59;96514.91;;;6.16;88.42
20105;BME280;10212;42.714;23.310;2022-11-12T05:30:00;96514.25;;;6.24;86.25
20105;BME280;10212;42.714;23.310;2022-11-12T05:35:00;96517.22;;;6.19;87.49
20105;BME280;10212;42.714;23.310;2022-11-12T05:40:10;96520.53;;;6.11;87.08
20105;BME280;10212;42.714;23.310;2022-11-12T05:45:31;96516.56;;;5.97;88.06
20105;BME280;10212;42.714;23.310;2022-11-12T05:50:32;96523.94;;;5.92;89.13
20105;BME280;10212;42.714;23.310;2022-11-12T05:55:32;96528.81;;;5.95;88.58
20105;BME280;10212;42.714;23.310;2022-11-12T06:00:32;96528.44;;;6.10;88.64
20105;BME280;10212;42.714;23.310;2022-11-12T06:05:38;96530.31;;;6.27;88.38
20105;BME280;10212;42.714;23.310;2022-11-12T06:10:38;96541.69;;;6.55;85.91
20105;BME280;10212;42.714;23.310;2022-11-12T06:15:38;96545.25;;;6.54;83.67
20105;BME280;10212;42.714;23.310;2022-11-12T06:20:39;96544.03;;;6.58;84.11
20105;BME280;10212;42.714;23.310;2022-11-12T06:25:40;96537.56;;;6.72;83.22
20105;BME280;10212;42.714;23.310;2022-11-12T06:30:40;96533.75;;;6.56;84.42
20105;BME280;10212;42.714;23.310;2022-11-12T06:35:41;96531.31;;;6.55;85.57
20105;BME280;10212;42.714;23.310;2022-11-12T06:40:41;96539.75;;;6.67;85.48
20105;BME280;10212;42.714;23.310;2022-11-12T06:45:41;96553.91;;;6.72;86.30
20105;BME280;10212;42.714;23.310;2022-11-12T06:50:42;96549.91;;;7.16;86.00
20105;BME280;10212;42.714;23.310;2022-11-12T06:55:42;96547.50;;;7.51;83.53
20105;BME280;10212;42.714;23.310;2022-11-12T07:00:43;96541.56;;;7.41;83.69
20105;BME280;10212;42.714;23.310;2022-11-12T07:05:44;96543.94;;;7.34;83.94
20105;BME280;10212;42.714;23.310;2022-11-12T07:10:44;96544.63;;;7.72;79.32
20105;BME280;10212;42.714;23.310;2022-11-12T07:15:44;96540.28;;;8.00;78.54
20105;BME280;10212;42.714;23.310;2022-11-12T07:20:45;96534.09;;;8.45;77.19
20105;BME280;10212;42.714;23.310;2022-11-12T07:25:45;96531.69;;;8.71;74.34
20105;BME280;10212;42.714;23.310;2022-11-12T07:30:46;96532.78;;;8.95;73.63
20105;BME280;10212;42.714;23.310;2022-11-12T07:35:46;96532.59;;;8.88;73.41
20105;BME280;10212;42.714;23.310;2022-11-12T07:40:47;96534.34;;;8.79;74.08
20105;BME280;10212;42.714;23.310;2022-11-12T07:45:47;96528.78;;;8.74;74.24
20105;BME280;10212;42.714;23.310;2022-11-12T07:50:48;96534.41;;;9.04;73.90
20105;BME280;10212;42.714;23.310;2022-11-12T07:55:52;96537.72;;;9.14;73.95
20105;BME280;10212;42.714;23.310;2022-11-12T08:00:52;96530.56;;;9.16;71.01
20105;BME280;10212;42.714;23.310;2022-11-12T08:05:53;96550.00;;;8.96;71.98
20105;BME280;10212;42.714;23.310;2022-11-12T08:10:54;96553.97;;;9.08;71.27
20105;BME280;10212;42.714;23.310;2022-11-12T08:15:58;96542.13;;;9.22;69.84
20105;BME280;10212;42.714;23.310;2022-11-12T08:20:59;96539.09;;;9.52;68.67
20105;BME280;10212;42.714;23.310;2022-11-12T08:26:00;96547.59;;;9.62;67.60
20105;BME280;10212;42.714;23.310;2022-11-12T08:31:07;96550.19;;;9.62;67.08
20105;BME280;10212;42.714;23.310;2022-11-12T08:36:08;96552.94;;;9.61;66.75
20105;BME280;10212;42.714;23.310;2022-11-12T08:41:10;96549.19;;;9.55;67.10
20105;BME280;10212;42.714;23.310;2022-11-12T08:46:11;96558.22;;;9.18;67.36
20105;BME280;10212;42.714;23.310;2022-11-12T08:51:11;96560.56;;;9.37;66.42
20105;BME280;10212;42.714;23.310;2022-11-12T08:56:11;96556.38;;;9.53;65.84
20105;BME280;10212;42.714;23.310;2022-11-12T09:01:12;96556.84;;;9.48;66.25
20105;BME280;10212;42.714;23.310;2022-11-12T09:06:12;96540.75;;;9.61;66.23
20105;BME280;10212;42.714;23.310;2022-11-12T09:11:13;96544.34;;;9.60;65.13
20105;BME280;10212;42.714;23.310;2022-11-12T09:16:13;96549.50;;;9.35;65.99
20105;BME280;10212;42.714;23.310;2022-11-12T09:21:14;96537.81;;;9.56;65.83
20105;BME280;10212;42.714;23.310;2022-11-12T09:26:15;96543.19;;;9.63;64.28
20105;BME280;10212;42.714;23.310;2022-11-12T09:31:15;96544.97;;;9.62;64.99
20105;BME280;10212;42.714;23.310;2022-11-12T09:36:15;96545.41;;;9.41;66.04
20105;BME280;10212;42.714;23.310;2022-11-12T09:41:24;96542.31;;;9.29;66.33
20105;BME280;10212;42.714;23.310;2022-11-12T09:46:33;96553.22;;;9.41;67.83
20105;BME280;10212;42.714;23.310;2022-11-12T09:51:41;96555.38;;;9.46;67.17
20105;BME280;10212;42.714;23.310;2022-11-12T09:56:42;96549.53;;;9.52;67.35
20105;BME280;10212;42.714;23.310;2022-11-12T10:07:03;96542.88;;;10.41;64.87
20105;BME280;10212;42.714;23.310;2022-11-12T10:12:15;96552.19;;;9.94;65.17
20105;BME280;10212;42.714;23.310;2022-11-12T10:27:54;96555.66;;;9.34;68.46
20105;BME280;10212;42.714;23.310;2022-11-12T10:32:55;96555.31;;;9.29;69.54
20105;BME280;10212;42.714;23.310;2022-11-12T10:38:00;96553.38;;;9.31;69.83
20105;BME280;10212;42.714;23.310;2022-11-12T10:43:03;96549.41;;;9.02;72.29
20105;BME280;10212;42.714;23.310;2022-11-12T10:48:04;96553.00;;;8.74;73.64
20105;BME280;10212;42.714;23.310;2022-11-12T10:53:05;96546.72;;;8.85;74.16
20105;BME280;10212;42.714;23.310;2022-11-12T10:58:12;96552.56;;;8.87;72.83
20105;BME280;10212;42.714;23.310;2022-11-12T11:03:18;96549.41;;;9.02;72.48
20105;BME280;10212;42.714;23.310;2022-11-12T11:13:36;96546.97;;;9.09;72.16
20105;BME280;10212;42.714;23.310;2022-11-12T11:18:37;96556.41;;;9.10;72.49
20105;BME280;10212;42.714;23.310;2022-11-12T11:28:40;96536.78;;;9.32;71.60
20105;BME280;10212;42.714;23.310;2022-11-12T12:04:56;96551.22;;;8.75;75.06
20105;BME280;10212;42.714;23.310;2022-11-12T12:10:05;96540.19;;;8.81;73.93
20105;BME280;10212;42.714;23.310;2022-11-12T12:25:40;96517.25;;;9.28;72.10
20105;BME280;10212;42.714;23.310;2022-11-12T12:30:43;96522.50;;;9.45;70.79
20105;BME280;10212;42.714;23.310;2022-11-12T12:35:51;96522.00;;;9.41;69.90
20105;BME280;10212;42.714;23.310;2022-11-12T12:46:13;96526.19;;;9.25;69.99
20105;BME280;10212;42.714;23.310;2022-11-12T12:51:14;96523.81;;;9.40;69.96
20105;BME280;10212;42.714;23.310;2022-11-12T12:56:41;96519.25;;;9.43;69.88
20105;BME280;10212;42.714;23.310;2022-11-12T13:01:41;96526.31;;;9.07;72.40
20105;BME280;10212;42.714;23.310;2022-11-12T13:27:53;96555.69;;;7.75;86.30
20105;BME280;10212;42.714;23.310;2022-11-12T13:37:50;96557.38;;;7.84;87.63
20105;BME280;10212;42.714;23.310;2022-11-12T13:42:51;96551.09;;;7.87;87.27
20105;BME280;10212;42.714;23.310;2022-11-12T13:47:52;96550.25;;;7.86;86.71
20105;BME280;10212;42.714;23.310;2022-11-12T13:52:52;96547.91;;;7.75;87.98
20105;BME280;10212;42.714;23.310;2022-11-12T13:57:54;96544.53;;;7.82;88.14
20105;BME280;10212;42.714;23.310;2022-11-12T14:02:58;96547.56;;;7.96;87.21
20105;BME280;10212;42.714;23.310;2022-11-12T14:23:18;96543.81;;;7.90;87.07
20105;BME280;10212;42.714;23.310;2022-11-12T14:28:29;96544.91;;;8.06;86.43
20105;BME280;10212;42.714;23.310;2022-11-12T14:33:30;96547.56;;;8.14;86.02
20105;BME280;10212;42.714;23.310;2022-11-12T14:43:34;96552.16;;;8.20;85.65
20105;BME280;10212;42.714;23.310;2022-11-12T14:48:45;96540.16;;;8.28;85.62
20105;BME280;10212;42.714;23.310;2022-11-12T14:53:48;96542.78;;;8.28;84.50
20105;BME280;10212;42.714;23.310;2022-11-12T14:58:51;96539.53;;;8.26;84.40
20105;BME280;10212;42.714;23.310;2022-11-12T15:04:02;96548.38;;;8.15;84.32
20105;BME280;10212;42.714;23.310;2022-11-12T15:09:02;96545.84;;;8.23;84.32
20105;BME280;10212;42.714;23.310;2022-11-12T15:14:03;96550.00;;;8.16;85.21
20105;BME280;10212;42.714;23.310;2022-11-12T15:29:19;96551.16;;;7.77;89.32
20105;BME280;10212;42.714;23.310;2022-11-12T15:39:27;96550.88;;;7.80;90.31
20105;BME280;10212;42.714;23.310;2022-11-12T15:44:32;96546.69;;;7.87;88.81
20105;BME280;10212;42.714;23.310;2022-11-12T15:49:33;96548.03;;;7.91;88.30
20105;BME280;10212;42.714;23.310;2022-11-12T15:54:35;96547.22;;;7.91;89.21
20105;BME280;10212;42.714;23.310;2022-11-12T15:59:35;96563.63;;;7.91;88.87
20105;BME280;10212;42.714;23.310;2022-11-12T16:04:35;96561.06;;;8.00;88.07
20105;BME280;10212;42.714;23.310;2022-11-12T16:09:36;96573.13;;;8.01;87.60
20105;BME280;10212;42.714;23.310;2022-11-12T16:14:38;96571.78;;;7.96;88.67
20105;BME280;10212;42.714;23.310;2022-11-12T16:19:39;96571.19;;;8.03;87.56
20105;BME280;10212;42.714;23.310;2022-11-12T16:24:40;96584.09;;;7.94;87.24
20105;BME280;10212;42.714;23.310;2022-11-12T16:29:40;96572.75;;;7.95;86.84
20105;BME280;10212;42.714;23.310;2022-11-12T16:34:41;96567.91;;;8.01;86.73
20105;BME280;10212;42.714;23.310;2022-11-12T16:39:41;96558.41;;;7.91;86.80
20105;BME280;10212;42.714;23.310;2022-11-12T16:44:42;96562.88;;;7.81;86.84
20105;BME280;10212;42.714;23.310;2022-11-12T16:49:42;96566.81;;;7.85;87.42
20105;BME280;10212;42.714;23.310;2022-11-12T16:54:43;96555.97;;;7.90;87.01
20105;BME280;10212;42.714;23.310;2022-11-12T16:59:43;96561.16;;;7.90;86.65
20105;BME280;10212;42.714;23.310;2022-11-12T17:04:44;96563.19;;;7.78;87.23
20105;BME280;10212;42.714;23.310;2022-11-12T17:09:45;96560.66;;;7.86;87.06
20105;BME280;10212;42.714;23.310;2022-11-12T17:14:46;96566.00;;;7.84;87.34
20105;BME280;10212;42.714;23.310;2022-11-12T17:19:46;96565.53;;;7.89;88.34
20105;BME280;10212;42.714;23.310;2022-11-12T17:24:47;96570.59;;;7.72;89.64
20105;BME280;10212;42.714;23.310;2022-11-12T17:29:47;96570.50;;;7.82;89.33
20105;BME280;10212;42.714;23.310;2022-11-12T20:08:40;96611.88;;;7.47;94.86
20105;BME280;10212;42.714;23.310;2022-11-12T20:13:41;96606.53;;;7.49;95.22
20105;BME280;10212;42.714;23.310;2022-11-12T20:18:42;96614.47;;;7.47;95.03
20105;BME280;10212;42.714;23.310;2022-11-12T20:23:43;96613.66;;;7.47;94.66
20105;BME280;10212;42.714;23.310;2022-11-12T20:28:44;96630.97;;;7.56;94.61
20105;BME280;10212;42.714;23.310;2022-11-12T20:33:48;96638.09;;;7.72;93.24
20105;BME280;10212;42.714;23.310;2022-11-12T20:38:49;96630.84;;;7.76;93.02
20105;BME280;10212;42.714;23.310;2022-11-12T20:43:53;96629.34;;;7.74;93.04
20105;BME280;10212;42.714;23.310;2022-11-12T20:48:53;96618.13;;;7.73;93.04
20105;BME280;10212;42.714;23.310;2022-11-12T20:53:54;96630.03;;;7.76;92.02
20105;BME280;10212;42.714;23.310;2022-11-12T20:58:55;96625.19;;;7.81;92.35
20105;BME280;10212;42.714;23.310;2022-11-12T21:03:55;96626.91;;;7.72;92.14
20105;BME280;10212;42.714;23.310;2022-11-12T21:08:57;96625.91;;;7.73;92.63
20105;BME280;10212;42.714;23.310;2022-11-12T21:13:58;96617.09;;;7.84;91.62
20105;BME280;10212;42.714;23.310;2022-11-12T21:19:00;96618.53;;;7.96;90.89
20105;BME280;10212;42.714;23.310;2022-11-12T21:24:00;96615.34;;;7.84;90.37
20105;BME280;10212;42.714;23.310;2022-11-12T21:29:01;96628.09;;;7.78;91.17
20105;BME280;10212;42.714;23.310;2022-11-12T21:34:03;96623.13;;;7.84;91.19
20105;BME280;10212;42.714;23.310;2022-11-12T21:39:06;96623.19;;;7.93;91.18
20105;BME280;10212;42.714;23.310;2022-11-12T21:44:07;96621.13;;;7.96;90.49
20105;BME280;10212;42.714;23.310;2022-11-12T21:49:08;96627.66;;;7.82;91.23
20105;BME280;10212;42.714;23.310;2022-11-12T21:54:09;96635.59;;;7.81;91.66
20105;BME280;10212;42.714;23.310;2022-11-12T21:59:09;96629.56;;;7.80;92.06
20105;BME280;10212;42.714;23.310;2022-11-12T22:04:10;96621.53;;;7.55;93.46
20105;BME280;10212;42.714;23.310;2022-11-12T22:09:10;96626.72;;;7.55;93.58
20105;BME280;10212;42.714;23.310;2022-11-12T22:14:11;96626.72;;;7.55;93.77
20105;BME280;10212;42.714;23.310;2022-11-12T22:19:11;96629.47;;;7.54;94.04
20105;BME280;10212;42.714;23.310;2022-11-12T22:24:15;96616.84;;;7.59;93.47
20105;BME280;10212;42.714;23.310;2022-11-12T22:29:16;96620.03;;;7.53;93.51
20105;BME280;10212;42.714;23.310;2022-11-12T22:34:17;96619.34;;;7.60;93.88
20105;BME280;10212;42.714;23.310;2022-11-12T22:39:17;96615.75;;;7.62;93.73
20105;BME280;10212;42.714;23.310;2022-11-12T22:44:17;96622.72;;;7.61;93.80
20105;BME280;10212;42.714;23.310;2022-11-12T22:49:18;96620.88;;;7.71;93.64
20105;BME280;10212;42.714;23.310;2022-11-12T22:54:18;96616.44;;;7.82;92.61
20105;BME280;10212;42.714;23.310;2022-11-12T22:59:19;96616.06;;;7.77;92.56
20105;BME280;10212;42.714;23.310;2022-11-12T23:04:19;96610.88;;;7.77;93.02
20105;BME280;10212;42.714;23.310;2022-11-12T23:09:19;96609.41;;;7.74;93.35
20105;BME280;10212;42.714;23.310;2022-11-12T23:14:20;96608.28;;;7.77;93.07
20105;BME280;10212;42.714;23.310;2022-11-12T23:19:20;96607.91;;;7.71;93.91
20105;BME280;10212;42.714;23.310;2022-11-12T23:24:21;96608.88;;;7.70;94.05
20105;BME280;10212;42.714;23.310;2022-11-12T23:29:21;96602.50;;;7.83;93.72
20105;BME280;10212;42.714;23.310;2022-11-12T23:34:22;96604.34;;;7.91;93.66
20105;BME280;10212;42.714;23.310;2022-11-12T23:39:22;96594.50;;;7.76;93.46
20105;BME280;10212;42.714;23.310;2022-11-12T23:44:22;96594.41;;;7.86;92.96
20105;BME280;10212;42.714;23.310;2022-11-12T23:49:23;96603.00;;;8.05;92.12
20105;BME280;10212;42.714;23.310;2022-11-12T23:54:23;96593.75;;;8.02;92.08
20105;BME280;10212;42.714;23.310;2022-11-12T23:59:24;96584.03;;;8.04;92.36
